sensor_id;sensor_type;location;lat;lon;timestamp;P1;durP1;ratioP1;P2;durP2;ratioP2
53521;SDS011;39398;48.382;9.802;2024-01-27T00:02:21;4.00;;;2.20;;
53521;SDS011;39398;48.382;9.802;2024-01-27T00:07:24;5.60;;;2.67;;
53521;SDS011;39398;48.382;9.802;2024-01-27T00:12:26;3.70;;;2.50;;
53521;SDS011;39398;48.382;9.802;2024-01-27T00:17:27;7.32;;;2.67;;
53521;SDS011;39398;48.382;9.802;2024-01-27T00:22:31;7.03;;;2.80;;
53521;SDS011;39398;48.382;9.802;2024-01-27T00:27:32;6.93;;;2.50;;
53521;SDS011;39398;48.382;9.802;2024-01-27T00:32:34;6.32;;;2.47;;
53521;SDS011;39398;48.382;9.802;2024-01-27T00:37:40;6.88;;;3.25;;
53521;SDS011;39398;48.382;9.802;2024-01-27T00:42:42;5.53;;;2.30;;
53521;SDS011;39398;48.382;9.802;2024-01-27T00:47:43;4.20;;;2.47;;
53521;SDS011;39398;48.382;9.802;2024-01-27T00:52:46;3.88;;;2.15;;
53521;SDS011;39398;48.382;9.802;2024-01-27T00:57:48;8.45;;;2.33;;
53521;SDS011;39398;48.382;9.802;2024-01-27T01:02:50;5.55;;;2.30;;
53521;SDS011;39398;48.382;9.802;2024-01-27T01:07:53;3.90;;;2.53;;
53521;SDS011;39398;48.382;9.802;2024-01-27T01:12:54;6.65;;;2.53;;
53521;SDS011;39398;48.382;9.802;2024-01-27T01:17:56;7.38;;;2.88;;
53521;SDS011;39398;48.382;9.802;2024-01-27T01:22:59;10.23;;;3.55;;
53521;SDS011;39398;48.382;9.802;2024-01-27T01:28:01;9.30;;;3.42;;
53521;SDS011;39398;48.382;9.802;2024-01-27T01:33:02;9.63;;;3.63;;
53521;SDS011;39398;48.382;9.802;2024-01-27T01:38:06;6.43;;;3.45;;
53521;SDS011;39398;48.382;9.802;2024-01-27T01:43:09;5.18;;;3.42;;
53521;SDS011;39398;48.382;9.802;2024-01-27T01:48:11;5.60;;;3.05;;
53521;SDS011;39398;48.382;9.802;2024-01-27T01:53:15;12.60;;;3.67;;
53521;SDS011;39398;48.382;9.802;2024-01-27T01:58:17;9.70;;;4.50;;
53521;SDS011;39398;48.382;9.802;2024-01-27T02:03:18;7.63;;;4.35;;
53521;SDS011;39398;48.382;9.802;2024-01-27T02:08:22;11.82;;;4.10;;
53521;SDS011;39398;48.382;9.802;2024-01-27T02:13:23;7.78;;;4.22;;
53521;SDS011;39398;48.382;9.802;2024-01-27T02:18:25;9.25;;;4.55;;
53521;SDS011;39398;48.382;9.802;2024-01-27T02:23:29;9.80;;;4.45;;
53521;SDS011;39398;48.382;9.802;2024-01-27T02:28:32;9.10;;;4.50;;
53521;SDS011;39398;48.382;9.802;2024-01-27T02:33:34;11.38;;;4.50;;
53521;SDS011;39398;48.382;9.802;2024-01-27T02:38:36;11.35;;;4.30;;
53521;SDS011;39398;48.382;9.802;2024-01-27T02:43:39;12.30;;;4.68;;
53521;SDS011;39398;48.382;9.802;2024-01-27T02:48:40;12.75;;;6.03;;
53521;SDS011;39398;48.382;9.802;2024-01-27T02:53:42;15.88;;;6.15;;
53521;SDS011;39398;48.382;9.802;2024-01-27T02:58:45;14.82;;;6.22;;
53521;SDS011;39398;48.382;9.802;2024-01-27T03:03:47;15.40;;;6.97;;
53521;SDS011;39398;48.382;9.802;2024-01-27T03:08:49;13.68;;;6.47;;
53521;SDS011;39398;48.382;9.802;2024-01-27T03:13:52;20.08;;;7.57;;
53521;SDS011;39398;48.382;9.802;2024-01-27T03:18:53;16.27;;;7.80;;
53521;SDS011;39398;48.382;9.802;2024-01-27T03:23:56;16.10;;;7.60;;
53521;SDS011;39398;48.382;9.802;2024-01-27T03:28:59;15.30;;;7.78;;
53521;SDS011;39398;48.382;9.802;2024-01-27T03:34:01;15.90;;;7.15;;
53521;SDS011;39398;48.382;9.802;2024-01-27T03:39:04;16.98;;;7.18;;
53521;SDS011;39398;48.382;9.802;2024-01-27T03:44:08;15.85;;;7.10;;
53521;SDS011;39398;48.382;9.802;2024-01-27T03:49:09;14.63;;;7.97;;
53521;SDS011;39398;48.382;9.802;2024-01-27T03:54:12;17.10;;;7.32;;
53521;SDS011;39398;48.382;9.802;2024-01-27T03:59:15;13.98;;;6.70;;
53521;SDS011;39398;48.382;9.802;2024-01-27T04:04:16;17.75;;;7.13;;
53521;SDS011;39398;48.382;9.802;2024-01-27T04:09:18;14.25;;;7.20;;
53521;SDS011;39398;48.382;9.802;2024-01-27T04:14:21;16.63;;;6.72;;
53521;SDS011;39398;48.382;9.802;2024-01-27T04:19:23;10.82;;;6.47;;
53521;SDS011;39398;48.382;9.802;2024-01-27T04:24:24;13.02;;;6.32;;
53521;SDS011;39398;48.382;9.802;2024-01-27T04:29:28;16.10;;;6.22;;
53521;SDS011;39398;48.382;9.802;2024-01-27T04:34:29;14.35;;;6.60;;
53521;SDS011;39398;48.382;9.802;2024-01-27T04:39:33;14.52;;;7.05;;
53521;SDS011;39398;48.382;9.802;2024-01-27T04:44:39;16.83;;;7.28;;
53521;SDS011;39398;48.382;9.802;2024-01-27T04:49:41;13.55;;;7.47;;
53521;SDS011;39398;48.382;9.802;2024-01-27T04:54:43;13.63;;;6.45;;
53521;SDS011;39398;48.382;9.802;2024-01-27T04:59:46;19.48;;;7.10;;
53521;SDS011;39398;48.382;9.802;2024-01-27T05:04:47;15.15;;;6.95;;
53521;SDS011;39398;48.382;9.802;2024-01-27T05:09:49;15.88;;;6.88;;
53521;SDS011;39398;48.382;9.802;2024-01-27T05:14:53;17.08;;;7.13;;
53521;SDS011;39398;48.382;9.802;2024-01-27T05:19:55;19.30;;;7.15;;
53521;SDS011;39398;48.382;9.802;2024-01-27T05:24:57;16.15;;;7.28;;
53521;SDS011;39398;48.382;9.802;2024-01-27T05:30:00;20.98;;;7.22;;
53521;SDS011;39398;48.382;9.802;2024-01-27T05:35:02;14.50;;;6.95;;
53521;SDS011;39398;48.382;9.802;2024-01-27T05:40:04;18.30;;;7.10;;
53521;SDS011;39398;48.382;9.802;2024-01-27T05:45:08;15.80;;;6.45;;
53521;SDS011;39398;48.382;9.802;2024-01-27T05:50:10;16.95;;;7.63;;
53521;SDS011;39398;48.382;9.802;2024-01-27T05:55:12;14.13;;;7.57;;
53521;SDS011;39398;48.382;9.802;2024-01-27T06:00:15;19.25;;;7.68;;
53521;SDS011;39398;48.382;9.802;2024-01-27T06:05:17;16.85;;;7.63;;
53521;SDS011;39398;48.382;9.802;2024-01-27T06:10:19;21.27;;;9.57;;
53521;SDS011;39398;48.382;9.802;2024-01-27T06:15:22;20.40;;;8.48;;
53521;SDS011;39398;48.382;9.802;2024-01-27T06:20:24;16.77;;;8.63;;
53521;SDS011;39398;48.382;9.802;2024-01-27T06:25:25;20.30;;;7.50;;
53521;SDS011;39398;48.382;9.802;2024-01-27T06:30:29;15.77;;;7.38;;
53521;SDS011;39398;48.382;9.802;2024-01-27T06:35:31;15.90;;;7.63;;
53521;SDS011;39398;48.382;9.802;2024-01-27T06:40:33;17.17;;;7.75;;
53521;SDS011;39398;48.382;9.802;2024-01-27T06:45:35;17.38;;;7.55;;
53521;SDS011;39398;48.382;9.802;2024-01-27T06:50:37;17.05;;;7.32;;
53521;SDS011;39398;48.382;9.802;2024-01-27T06:55:39;15.93;;;7.40;;
53521;SDS011;39398;48.382;9.802;2024-01-27T07:00:45;16.38;;;7.50;;
53521;SDS011;39398;48.382;9.802;2024-01-27T07:05:47;18.02;;;7.40;;
53521;SDS011;39398;48.382;9.802;2024-01-27T07:10:49;15.48;;;6.72;;
53521;SDS011;39398;48.382;9.802;2024-01-27T07:15:52;13.32;;;7.32;;
53521;SDS011;39398;48.382;9.802;2024-01-27T07:20:54;19.55;;;7.20;;
53521;SDS011;39398;48.382;9.802;2024-01-27T07:25:55;16.10;;;6.70;;
53521;SDS011;39398;48.382;9.802;2024-01-27T07:30:58;14.85;;;7.05;;
53521;SDS011;39398;48.382;9.802;2024-01-27T07:36:00;13.20;;;6.85;;
53521;SDS011;39398;48.382;9.802;2024-01-27T07:41:02;14.00;;;6.28;;
53521;SDS011;39398;48.382;9.802;2024-01-27T07:46:05;15.05;;;6.38;;
53521;SDS011;39398;48.382;9.802;2024-01-27T07:51:06;13.13;;;6.38;;
53521;SDS011;39398;48.382;9.802;2024-01-27T07:56:08;14.45;;;6.90;;
53521;SDS011;39398;48.382;9.802;2024-01-27T08:01:11;11.38;;;6.22;;
53521;SDS011;39398;48.382;9.802;2024-01-27T08:06:16;12.55;;;6.82;;
53521;SDS011;39398;48.382;9.802;2024-01-27T08:11:18;10.77;;;6.28;;
53521;SDS011;39398;48.382;9.802;2024-01-27T08:16:21;18.33;;;6.47;;
53521;SDS011;39398;48.382;9.802;2024-01-27T08:21:23;15.45;;;6.15;;
53521;SDS011;39398;48.382;9.802;2024-01-27T08:26:24;10.25;;;5.82;;
53521;SDS011;39398;48.382;9.802;2024-01-27T08:31:27;14.13;;;6.18;;
53521;SDS011;39398;48.382;9.802;2024-01-27T08:36:29;16.08;;;6.47;;
53521;SDS011;39398;48.382;9.802;2024-01-27T08:41:31;15.65;;;7.97;;
53521;SDS011;39398;48.382;9.802;2024-01-27T08:46:33;17.98;;;9.43;;
53521;SDS011;39398;48.382;9.802;2024-01-27T08:51:35;10.55;;;5.47;;
53521;SDS011;39398;48.382;9.802;2024-01-27T08:56:39;10.40;;;5.40;;
53521;SDS011;39398;48.382;9.802;2024-01-27T09:01:42;14.20;;;6.72;;
53521;SDS011;39398;48.382;9.802;2024-01-27T09:06:44;9.27;;;4.70;;
53521;SDS011;39398;48.382;9.802;2024-01-27T09:11:46;14.07;;;6.00;;
53521;SDS011;39398;48.382;9.802;2024-01-27T09:16:49;12.98;;;5.70;;
53521;SDS011;39398;48.382;9.802;2024-01-27T09:21:50;12.75;;;4.25;;
53521;SDS011;39398;48.382;9.802;2024-01-27T09:26:52;8.35;;;3.85;;
53521;SDS011;39398;48.382;9.802;2024-01-27T09:31:55;12.98;;;3.95;;
53521;SDS011;39398;48.382;9.802;2024-01-27T09:36:56;14.90;;;6.85;;
53521;SDS011;39398;48.382;9.802;2024-01-27T09:41:58;13.02;;;5.57;;
53521;SDS011;39398;48.382;9.802;2024-01-27T09:47:05;10.20;;;5.47;;
53521;SDS011;39398;48.382;9.802;2024-01-27T09:52:08;11.63;;;6.82;;
53521;SDS011;39398;48.382;9.802;2024-01-27T09:57:09;14.63;;;6.05;;
53521;SDS011;39398;48.382;9.802;2024-01-27T10:02:13;10.88;;;5.03;;
53521;SDS011;39398;48.382;9.802;2024-01-27T10:07:16;8.98;;;4.90;;
53521;SDS011;39398;48.382;9.802;2024-01-27T10:12:18;14.85;;;5.22;;
53521;SDS011;39398;48.382;9.802;2024-01-27T10:17:23;9.10;;;4.70;;
53521;SDS011;39398;48.382;9.802;2024-01-27T10:22:26;10.07;;;4.93;;
53521;SDS011;39398;48.382;9.802;2024-01-27T10:27:27;10.18;;;5.03;;
53521;SDS011;39398;48.382;9.802;2024-01-27T10:32:30;10.65;;;5.60;;
53521;SDS011;39398;48.382;9.802;2024-01-27T10:37:32;10.18;;;5.35;;
53521;SDS011;39398;48.382;9.802;2024-01-27T10:42:34;10.93;;;4.53;;
53521;SDS011;39398;48.382;9.802;2024-01-27T10:47:38;8.50;;;4.50;;
53521;SDS011;39398;48.382;9.802;2024-01-27T10:52:40;11.02;;;4.90;;
53521;SDS011;39398;48.382;9.802;2024-01-27T10:57:43;11.50;;;4.30;;
53521;SDS011;39398;48.382;9.802;2024-01-27T11:02:47;9.98;;;4.78;;
53521;SDS011;39398;48.382;9.802;2024-01-27T11:07:49;12.95;;;2.70;;
53521;SDS011;39398;48.382;9.802;2024-01-27T11:12:52;8.80;;;3.00;;
53521;SDS011;39398;48.382;9.802;2024-01-27T11:17:57;7.93;;;2.92;;
53521;SDS011;39398;48.382;9.802;2024-01-27T11:23:08;6.95;;;2.70;;
53521;SDS011;39398;48.382;9.802;2024-01-27T11:28:10;6.85;;;3.13;;
53521;SDS011;39398;48.382;9.802;2024-01-27T11:33:14;10.63;;;3.70;;
53521;SDS011;39398;48.382;9.802;2024-01-27T11:38:16;7.50;;;2.92;;
53521;SDS011;39398;48.382;9.802;2024-01-27T11:43:18;7.97;;;3.75;;
53521;SDS011;39398;48.382;9.802;2024-01-27T11:48:21;5.55;;;2.45;;
53521;SDS011;39398;48.382;9.802;2024-01-27T11:53:23;6.25;;;2.92;;
53521;SDS011;39398;48.382;9.802;2024-01-27T11:58:24;7.18;;;2.92;;
53521;SDS011;39398;48.382;9.802;2024-01-27T12:03:27;5.55;;;2.75;;
53521;SDS011;39398;48.382;9.802;2024-01-27T12:08:29;7.80;;;2.45;;
53521;SDS011;39398;48.382;9.802;2024-01-27T12:13:31;5.88;;;2.42;;
53521;SDS011;39398;48.382;9.802;2024-01-27T12:18:34;8.05;;;2.50;;
53521;SDS011;39398;48.382;9.802;2024-01-27T12:23:36;5.70;;;2.13;;
53521;SDS011;39398;48.382;9.802;2024-01-27T12:28:37;4.90;;;2.72;;
53521;SDS011;39398;48.382;9.802;2024-01-27T12:33:40;11.50;;;4.68;;
53521;SDS011;39398;48.382;9.802;2024-01-27T12:38:56;8.48;;;4.18;;
53521;SDS011;39398;48.382;9.802;2024-01-27T12:43:58;12.63;;;4.32;;
53521;SDS011;39398;48.382;9.802;2024-01-27T12:49:01;9.48;;;4.47;;
53521;SDS011;39398;48.382;9.802;2024-01-27T12:54:04;10.20;;;4.97;;
53521;SDS011;39398;48.382;9.802;2024-01-27T12:59:06;8.82;;;4.43;;
53521;SDS011;39398;48.382;9.802;2024-01-27T13:04:09;9.07;;;4.20;;
53521;SDS011;39398;48.382;9.802;2024-01-27T13:09:11;10.20;;;5.35;;
53521;SDS011;39398;48.382;9.802;2024-01-27T13:14:14;7.57;;;4.30;;
53521;SDS011;39398;48.382;9.802;2024-01-27T13:19:17;9.48;;;4.10;;
53521;SDS011;39398;48.382;9.802;2024-01-27T13:24:18;7.85;;;4.10;;
53521;SDS011;39398;48.382;9.802;2024-01-27T13:29:20;7.78;;;3.92;;
53521;SDS011;39398;48.382;9.802;2024-01-27T13:34:23;6.90;;;3.45;;
53521;SDS011;39398;48.382;9.802;2024-01-27T13:39:25;5.43;;;3.30;;
53521;SDS011;39398;48.382;9.802;2024-01-27T13:44:26;4.65;;;2.70;;
53521;SDS011;39398;48.382;9.802;2024-01-27T13:49:29;4.05;;;2.75;;
53521;SDS011;39398;48.382;9.802;2024-01-27T13:54:31;6.13;;;2.20;;
53521;SDS011;39398;48.382;9.802;2024-01-27T13:59:33;4.38;;;1.85;;
53521;SDS011;39398;48.382;9.802;2024-01-27T14:04:36;4.13;;;1.77;;
53521;SDS011;39398;48.382;9.802;2024-01-27T14:09:38;3.70;;;1.60;;
53521;SDS011;39398;48.382;9.802;2024-01-27T14:14:40;3.38;;;1.25;;
53521;SDS011;39398;48.382;9.802;2024-01-27T14:19:43;7.10;;;1.80;;
53521;SDS011;39398;48.382;9.802;2024-01-27T14:24:45;7.80;;;2.88;;
53521;SDS011;39398;48.382;9.802;2024-01-27T14:29:46;3.22;;;1.50;;
53521;SDS011;39398;48.382;9.802;2024-01-27T14:34:49;2.58;;;1.80;;
53521;SDS011;39398;48.382;9.802;2024-01-27T14:39:51;4.85;;;2.60;;
53521;SDS011;39398;48.382;9.802;2024-01-27T14:44:53;6.10;;;2.25;;
53521;SDS011;39398;48.382;9.802;2024-01-27T14:49:56;4.63;;;2.35;;
53521;SDS011;39398;48.382;9.802;2024-01-27T14:54:57;4.38;;;2.17;;
53521;SDS011;39398;48.382;9.802;2024-01-27T14:59:59;5.85;;;2.53;;
53521;SDS011;39398;48.382;9.802;2024-01-27T15:05:04;6.13;;;2.78;;
53521;SDS011;39398;48.382;9.802;2024-01-27T15:10:06;6.18;;;2.60;;
53521;SDS011;39398;48.382;9.802;2024-01-27T15:15:09;7.63;;;2.35;;
53521;SDS011;39398;48.382;9.802;2024-01-27T15:20:12;6.30;;;2.60;;
53521;SDS011;39398;48.382;9.802;2024-01-27T15:25:15;4.20;;;2.30;;
53521;SDS011;39398;48.382;9.802;2024-01-27T15:30:18;7.18;;;2.30;;
53521;SDS011;39398;48.382;9.802;2024-01-27T15:35:21;4.28;;;2.50;;
53521;SDS011;39398;48.382;9.802;2024-01-27T15:40:23;4.13;;;2.20;;
53521;SDS011;39398;48.382;9.802;2024-01-27T15:45:25;5.40;;;2.90;;
53521;SDS011;39398;48.382;9.802;2024-01-27T15:50:30;6.32;;;2.35;;
53521;SDS011;39398;48.382;9.802;2024-01-27T16:00:38;7.15;;;2.95;;
53521;SDS011;39398;48.382;9.802;2024-01-27T16:05:41;9.50;;;3.00;;
53521;SDS011;39398;48.382;9.802;2024-01-27T16:10:43;7.53;;;2.83;;
53521;SDS011;39398;48.382;9.802;2024-01-27T16:15:45;9.68;;;3.22;;
53521;SDS011;39398;48.382;9.802;2024-01-27T16:20:48;6.13;;;3.10;;
53521;SDS011;39398;48.382;9.802;2024-01-27T16:25:49;7.85;;;3.63;;
53521;SDS011;39398;48.382;9.802;2024-01-27T16:30:51;8.95;;;3.78;;
53521;SDS011;39398;48.382;9.802;2024-01-27T16:35:54;6.10;;;3.47;;
53521;SDS011;39398;48.382;9.802;2024-01-27T16:40:56;8.90;;;3.63;;
53521;SDS011;39398;48.382;9.802;2024-01-27T16:45:57;8.32;;;3.40;;
53521;SDS011;39398;48.382;9.802;2024-01-27T16:51:00;8.38;;;3.17;;
53521;SDS011;39398;48.382;9.802;2024-01-27T16:56:02;6.63;;;3.20;;
53521;SDS011;39398;48.382;9.802;2024-01-27T17:01:05;8.07;;;3.40;;
53521;SDS011;39398;48.382;9.802;2024-01-27T17:06:08;6.93;;;2.92;;
53521;SDS011;39398;48.382;9.802;2024-01-27T17:11:10;8.05;;;3.17;;
53521;SDS011;39398;48.382;9.802;2024-01-27T17:16:11;8.52;;;3.38;;
53521;SDS011;39398;48.382;9.802;2024-01-27T17:21:14;11.30;;;4.55;;
53521;SDS011;39398;48.382;9.802;2024-01-27T17:26:16;8.48;;;4.40;;
53521;SDS011;39398;48.382;9.802;2024-01-27T17:31:18;11.93;;;4.65;;
53521;SDS011;39398;48.382;9.802;2024-01-27T17:36:21;10.95;;;4.50;;
53521;SDS011;39398;48.382;9.802;2024-01-27T17:41:22;10.13;;;4.82;;
53521;SDS011;39398;48.382;9.802;2024-01-27T17:46:24;9.38;;;4.00;;
53521;SDS011;39398;48.382;9.802;2024-01-27T17:51:27;8.70;;;3.88;;
53521;SDS011;39398;48.382;9.802;2024-01-27T17:56:28;10.82;;;3.55;;
53521;SDS011;39398;48.382;9.802;2024-01-27T18:01:30;9.88;;;4.32;;
53521;SDS011;39398;48.382;9.802;2024-01-27T18:06:33;10.30;;;3.92;;
53521;SDS011;39398;48.382;9.802;2024-01-27T18:11:35;9.77;;;4.07;;
53521;SDS011;39398;48.382;9.802;2024-01-27T18:16:36;10.13;;;4.40;;
53521;SDS011;39398;48.382;9.802;2024-01-27T18:21:40;8.68;;;4.63;;
53521;SDS011;39398;48.382;9.802;2024-01-27T18:26:41;7.80;;;4.88;;
53521;SDS011;39398;48.382;9.802;2024-01-27T18:31:43;11.15;;;4.85;;
53521;SDS011;39398;48.382;9.802;2024-01-27T18:36:47;12.18;;;5.15;;
53521;SDS011;39398;48.382;9.802;2024-01-27T18:41:48;12.13;;;5.03;;
53521;SDS011;39398;48.382;9.802;2024-01-27T18:46:50;10.68;;;4.70;;
53521;SDS011;39398;48.382;9.802;2024-01-27T18:51:53;15.57;;;4.90;;
53521;SDS011;39398;48.382;9.802;2024-01-27T18:56:55;9.50;;;5.10;;
53521;SDS011;39398;48.382;9.802;2024-01-27T19:01:57;11.80;;;5.10;;
53521;SDS011;39398;48.382;9.802;2024-01-27T19:07:00;16.52;;;5.10;;
53521;SDS011;39398;48.382;9.802;2024-01-27T19:12:02;14.00;;;5.10;;
53521;SDS011;39398;48.382;9.802;2024-01-27T19:17:04;9.95;;;4.80;;
53521;SDS011;39398;48.382;9.802;2024-01-27T19:22:07;10.88;;;5.32;;
53521;SDS011;39398;48.382;9.802;2024-01-27T19:27:08;12.13;;;4.95;;
53521;SDS011;39398;48.382;9.802;2024-01-27T19:32:10;9.48;;;5.20;;
53521;SDS011;39398;48.382;9.802;2024-01-27T19:37:13;11.15;;;5.55;;
53521;SDS011;39398;48.382;9.802;2024-01-27T19:42:14;15.13;;;6.25;;
53521;SDS011;39398;48.382;9.802;2024-01-27T19:47:19;17.73;;;6.65;;
53521;SDS011;39398;48.382;9.802;2024-01-27T19:52:22;14.05;;;6.60;;
53521;SDS011;39398;48.382;9.802;2024-01-27T19:57:24;16.30;;;6.70;;
53521;SDS011;39398;48.382;9.802;2024-01-27T20:02:25;14.35;;;6.00;;
53521;SDS011;39398;48.382;9.802;2024-01-27T20:07:28;14.48;;;6.18;;
53521;SDS011;39398;48.382;9.802;2024-01-27T20:12:30;13.70;;;5.60;;
53521;SDS011;39398;48.382;9.802;2024-01-27T20:17:31;13.10;;;6.07;;
53521;SDS011;39398;48.382;9.802;2024-01-27T20:22:34;12.85;;;5.57;;
53521;SDS011;39398;48.382;9.802;2024-01-27T20:27:36;9.82;;;5.72;;
53521;SDS011;39398;48.382;9.802;2024-01-27T20:32:38;13.07;;;5.93;;
53521;SDS011;39398;48.382;9.802;2024-01-27T20:37:41;12.88;;;5.55;;
53521;SDS011;39398;48.382;9.802;2024-01-27T20:42:42;11.40;;;5.57;;
53521;SDS011;39398;48.382;9.802;2024-01-27T20:47:44;14.07;;;6.10;;
53521;SDS011;39398;48.382;9.802;2024-01-27T20:52:48;16.10;;;6.47;;
53521;SDS011;39398;48.382;9.802;2024-01-27T20:57:49;16.45;;;7.53;;
53521;SDS011;39398;48.382;9.802;2024-01-27T21:02:52;13.68;;;6.78;;
53521;SDS011;39398;48.382;9.802;2024-01-27T21:07:55;20.23;;;7.43;;
53521;SDS011;39398;48.382;9.802;2024-01-27T21:12:56;15.57;;;7.00;;
53521;SDS011;39398;48.382;9.802;2024-01-27T21:17:58;19.10;;;7.90;;
53521;SDS011;39398;48.382;9.802;2024-01-27T21:23:01;16.60;;;7.72;;
53521;SDS011;39398;48.382;9.802;2024-01-27T21:28:03;19.58;;;8.13;;
53521;SDS011;39398;48.382;9.802;2024-01-27T21:33:05;14.30;;;8.32;;
53521;SDS011;39398;48.382;9.802;2024-01-27T21:38:09;14.73;;;7.88;;
53521;SDS011;39398;48.382;9.802;2024-01-27T21:43:11;20.52;;;8.43;;
53521;SDS011;39398;48.382;9.802;2024-01-27T21:48:13;19.35;;;8.50;;
53521;SDS011;39398;48.382;9.802;2024-01-27T21:53:16;17.05;;;7.78;;
53521;SDS011;39398;48.382;9.802;2024-01-27T21:58:17;16.38;;;7.80;;
53521;SDS011;39398;48.382;9.802;2024-01-27T22:03:19;19.92;;;8.80;;
53521;SDS011;39398;48.382;9.802;2024-01-27T22:08:22;18.30;;;8.25;;
53521;SDS011;39398;48.382;9.802;2024-01-27T22:13:24;14.77;;;7.75;;
53521;SDS011;39398;48.382;9.802;2024-01-27T22:18:25;16.48;;;7.80;;
53521;SDS011;39398;48.382;9.802;2024-01-27T22:23:28;13.27;;;7.85;;
53521;SDS011;39398;48.382;9.802;2024-01-27T22:28:30;16.70;;;8.68;;
53521;SDS011;39398;48.382;9.802;2024-01-27T22:33:32;20.92;;;8.20;;
53521;SDS011;39398;48.382;9.802;2024-01-27T22:38:35;16.55;;;8.50;;
53521;SDS011;39398;48.382;9.802;2024-01-27T22:43:37;17.63;;;8.32;;
53521;SDS011;39398;48.382;9.802;2024-01-27T22:48:39;16.05;;;7.82;;
53521;SDS011;39398;48.382;9.802;2024-01-27T22:53:42;20.83;;;8.70;;
53521;SDS011;39398;48.382;9.802;2024-01-27T22:58:43;20.60;;;8.23;;
53521;SDS011;39398;48.382;9.802;2024-01-27T23:03:45;21.00;;;9.20;;
53521;SDS011;39398;48.382;9.802;2024-01-27T23:08:48;20.23;;;8.45;;
53521;SDS011;39398;48.382;9.802;2024-01-27T23:13:50;21.08;;;9.10;;
53521;SDS011;39398;48.382;9.802;2024-01-27T23:18:52;17.90;;;9.07;;
53521;SDS011;39398;48.382;9.802;2024-01-27T23:23:55;18.73;;;8.48;;
53521;SDS011;39398;48.382;9.802;2024-01-27T23:28:57;17.83;;;8.93;;
53521;SDS011;39398;48.382;9.802;2024-01-27T23:33:59;29.60;;;10.27;;
53521;SDS011;39398;48.382;9.802;2024-01-27T23:39:02;24.88;;;10.18;;
53521;SDS011;39398;48.382;9.802;2024-01-27T23:44:04;21.85;;;10.05;;
53521;SDS011;39398;48.382;9.802;2024-01-27T23:49:07;21.15;;;9.48;;
53521;SDS011;39398;48.382;9.802;2024-01-27T23:54:10;25.63;;;10.40;;
53521;SDS011;39398;48.382;9.802;2024-01-27T23:59:12;20.42;;;9.43;;
